Terminal Aerodrome Forecast
Issued by NWS

Home | Current Version | Previous Version | Graphics & Text | Print | Product List | Glossary On
Versions: 1 2 3 4 5 6 7 8 9 10 11 12 13 14 15 16 17 18 19 20
000
FTUS43 KABR 181700 CCA
TAFMBG
TAF COR
KMBG 181723Z 1818/1918 16008KT 5SM BR OVC005
      TEMPO 1818/1819 2SM BR OVC004
     FM190000 VRB04KT P6SM OVC015=

USA.gov is the U.S. government's official web portal to all federal, state and local government web resources and services.